sensor_id;sensor_type;location;lat;lon;timestamp;P1;durP1;ratioP1;P2;durP2;ratioP2
45354;SDS011;31091;48.758;9.150;2023-07-02T00:01:27;4.70;;;2.30;;
45354;SDS011;31091;48.758;9.150;2023-07-02T00:04:12;4.28;;;2.13;;
45354;SDS011;31091;48.758;9.150;2023-07-02T00:07:01;2.67;;;2.17;;
45354;SDS011;31091;48.758;9.150;2023-07-02T00:09:46;2.47;;;2.22;;
45354;SDS011;31091;48.758;9.150;2023-07-02T00:12:31;3.50;;;2.15;;
45354;SDS011;31091;48.758;9.150;2023-07-02T00:15:17;2.65;;;2.03;;
45354;SDS011;31091;48.758;9.150;2023-07-02T00:18:02;4.25;;;2.33;;
45354;SDS011;31091;48.758;9.150;2023-07-02T00:20:47;4.55;;;2.75;;
45354;SDS011;31091;48.758;9.150;2023-07-02T00:23:32;6.45;;;2.72;;
45354;SDS011;31091;48.758;9.150;2023-07-02T00:26:18;4.68;;;2.90;;
45354;SDS011;31091;48.758;9.150;2023-07-02T00:29:03;4.70;;;2.30;;
45354;SDS011;31091;48.758;9.150;2023-07-02T00:31:50;3.33;;;2.40;;
45354;SDS011;31091;48.758;9.150;2023-07-02T00:34:36;2.75;;;2.00;;
45354;SDS011;31091;48.758;9.150;2023-07-02T00:37:21;3.63;;;2.35;;
45354;SDS011;31091;48.758;9.150;2023-07-02T00:40:06;2.53;;;2.25;;
45354;SDS011;31091;48.758;9.150;2023-07-02T00:42:52;3.15;;;1.98;;
45354;SDS011;31091;48.758;9.150;2023-07-02T00:45:37;2.85;;;2.20;;
45354;SDS011;31091;48.758;9.150;2023-07-02T00:48:24;3.67;;;2.17;;
45354;SDS011;31091;48.758;9.150;2023-07-02T00:51:09;3.38;;;2.08;;
45354;SDS011;31091;48.758;9.150;2023-07-02T00:53:57;3.58;;;2.17;;
45354;SDS011;31091;48.758;9.150;2023-07-02T00:56:42;4.03;;;2.70;;
45354;SDS011;31091;48.758;9.150;2023-07-02T00:59:28;2.63;;;1.85;;
45354;SDS011;31091;48.758;9.150;2023-07-02T01:02:14;8.98;;;2.38;;
45354;SDS011;31091;48.758;9.150;2023-07-02T01:04:59;3.75;;;2.35;;
45354;SDS011;31091;48.758;9.150;2023-07-02T01:07:45;5.50;;;2.47;;
45354;SDS011;31091;48.758;9.150;2023-07-02T01:10:30;6.65;;;3.78;;
45354;SDS011;31091;48.758;9.150;2023-07-02T01:13:17;7.95;;;3.85;;
45354;SDS011;31091;48.758;9.150;2023-07-02T01:16:04;5.80;;;3.30;;
45354;SDS011;31091;48.758;9.150;2023-07-02T01:18:50;3.63;;;2.45;;
45354;SDS011;31091;48.758;9.150;2023-07-02T01:21:39;3.33;;;2.08;;
45354;SDS011;31091;48.758;9.150;2023-07-02T01:24:24;4.65;;;2.28;;
45354;SDS011;31091;48.758;9.150;2023-07-02T01:27:09;3.92;;;2.22;;
45354;SDS011;31091;48.758;9.150;2023-07-02T01:29:55;2.92;;;2.08;;
45354;SDS011;31091;48.758;9.150;2023-07-02T01:32:40;3.28;;;2.10;;
45354;SDS011;31091;48.758;9.150;2023-07-02T01:35:26;4.70;;;2.50;;
45354;SDS011;31091;48.758;9.150;2023-07-02T01:38:11;2.95;;;2.00;;
45354;SDS011;31091;48.758;9.150;2023-07-02T01:40:56;2.63;;;1.98;;
45354;SDS011;31091;48.758;9.150;2023-07-02T01:43:41;2.95;;;2.28;;
45354;SDS011;31091;48.758;9.150;2023-07-02T01:46:27;2.92;;;2.00;;
45354;SDS011;31091;48.758;9.150;2023-07-02T01:49:12;4.55;;;2.15;;
45354;SDS011;31091;48.758;9.150;2023-07-02T01:51:57;4.00;;;2.30;;
45354;SDS011;31091;48.758;9.150;2023-07-02T01:54:42;4.70;;;2.40;;
45354;SDS011;31091;48.758;9.150;2023-07-02T01:57:28;2.67;;;1.83;;
45354;SDS011;31091;48.758;9.150;2023-07-02T02:00:15;3.55;;;2.13;;
45354;SDS011;31091;48.758;9.150;2023-07-02T02:03:01;3.80;;;2.35;;
45354;SDS011;31091;48.758;9.150;2023-07-02T02:05:46;4.90;;;2.22;;
45354;SDS011;31091;48.758;9.150;2023-07-02T02:08:31;3.33;;;2.17;;
45354;SDS011;31091;48.758;9.150;2023-07-02T02:11:16;4.97;;;2.60;;
45354;SDS011;31091;48.758;9.150;2023-07-02T02:14:02;5.03;;;2.33;;
45354;SDS011;31091;48.758;9.150;2023-07-02T02:16:47;4.60;;;2.53;;
45354;SDS011;31091;48.758;9.150;2023-07-02T02:19:32;3.92;;;2.33;;
45354;SDS011;31091;48.758;9.150;2023-07-02T02:22:17;2.63;;;2.20;;
45354;SDS011;31091;48.758;9.150;2023-07-02T02:25:03;3.63;;;2.42;;
45354;SDS011;31091;48.758;9.150;2023-07-02T02:27:48;4.28;;;2.20;;
45354;SDS011;31091;48.758;9.150;2023-07-02T02:30:33;3.30;;;2.00;;
45354;SDS011;31091;48.758;9.150;2023-07-02T02:33:19;3.25;;;1.85;;
45354;SDS011;31091;48.758;9.150;2023-07-02T02:36:04;4.85;;;2.50;;
45354;SDS011;31091;48.758;9.150;2023-07-02T02:38:49;3.92;;;2.08;;
45354;SDS011;31091;48.758;9.150;2023-07-02T02:41:34;3.00;;;1.95;;
45354;SDS011;31091;48.758;9.150;2023-07-02T02:44:19;4.68;;;2.15;;
45354;SDS011;31091;48.758;9.150;2023-07-02T02:47:05;4.25;;;2.30;;
45354;SDS011;31091;48.758;9.150;2023-07-02T02:49:50;5.63;;;2.50;;
45354;SDS011;31091;48.758;9.150;2023-07-02T02:52:35;5.70;;;2.65;;
45354;SDS011;31091;48.758;9.150;2023-07-02T02:55:21;4.43;;;2.65;;
45354;SDS011;31091;48.758;9.150;2023-07-02T02:58:06;2.58;;;1.95;;
45354;SDS011;31091;48.758;9.150;2023-07-02T03:00:51;4.47;;;2.55;;
45354;SDS011;31091;48.758;9.150;2023-07-02T03:03:40;3.78;;;2.08;;
45354;SDS011;31091;48.758;9.150;2023-07-02T03:06:29;3.10;;;2.10;;
45354;SDS011;31091;48.758;9.150;2023-07-02T03:09:15;7.63;;;2.40;;
45354;SDS011;31091;48.758;9.150;2023-07-02T03:12:00;3.30;;;1.88;;
45354;SDS011;31091;48.758;9.150;2023-07-02T03:14:45;3.40;;;1.90;;
45354;SDS011;31091;48.758;9.150;2023-07-02T03:17:32;3.22;;;2.08;;
45354;SDS011;31091;48.758;9.150;2023-07-02T03:20:17;6.57;;;2.35;;
45354;SDS011;31091;48.758;9.150;2023-07-02T03:23:03;4.95;;;2.15;;
45354;SDS011;31091;48.758;9.150;2023-07-02T03:25:48;3.38;;;2.15;;
45354;SDS011;31091;48.758;9.150;2023-07-02T03:28:34;4.90;;;2.08;;
45354;SDS011;31091;48.758;9.150;2023-07-02T03:31:19;3.08;;;2.08;;
45354;SDS011;31091;48.758;9.150;2023-07-02T03:34:06;4.72;;;2.25;;
45354;SDS011;31091;48.758;9.150;2023-07-02T03:36:51;4.55;;;2.17;;
45354;SDS011;31091;48.758;9.150;2023-07-02T03:39:37;3.15;;;2.13;;
45354;SDS011;31091;48.758;9.150;2023-07-02T03:42:22;4.75;;;2.33;;
45354;SDS011;31091;48.758;9.150;2023-07-02T03:45:07;3.42;;;2.38;;
45354;SDS011;31091;48.758;9.150;2023-07-02T03:47:52;5.57;;;2.58;;
45354;SDS011;31091;48.758;9.150;2023-07-02T03:50:38;4.93;;;2.67;;
45354;SDS011;31091;48.758;9.150;2023-07-02T03:53:23;6.13;;;3.10;;
45354;SDS011;31091;48.758;9.150;2023-07-02T03:56:08;4.30;;;2.47;;
45354;SDS011;31091;48.758;9.150;2023-07-02T03:58:53;7.20;;;2.70;;
45354;SDS011;31091;48.758;9.150;2023-07-02T04:01:39;4.03;;;2.85;;
45354;SDS011;31091;48.758;9.150;2023-07-02T04:04:24;6.10;;;2.92;;
45354;SDS011;31091;48.758;9.150;2023-07-02T04:07:09;7.22;;;2.05;;
45354;SDS011;31091;48.758;9.150;2023-07-02T04:09:54;5.32;;;2.53;;
45354;SDS011;31091;48.758;9.150;2023-07-02T04:12:39;5.10;;;2.78;;
45354;SDS011;31091;48.758;9.150;2023-07-02T04:15:25;9.32;;;3.50;;
45354;SDS011;31091;48.758;9.150;2023-07-02T04:18:11;5.38;;;2.80;;
45354;SDS011;31091;48.758;9.150;2023-07-02T04:20:57;5.78;;;3.05;;
45354;SDS011;31091;48.758;9.150;2023-07-02T04:23:43;7.63;;;3.15;;
45354;SDS011;31091;48.758;9.150;2023-07-02T04:26:28;4.07;;;2.05;;
45354;SDS011;31091;48.758;9.150;2023-07-02T04:29:14;6.93;;;3.10;;
45354;SDS011;31091;48.758;9.150;2023-07-02T04:31:59;6.15;;;2.85;;
45354;SDS011;31091;48.758;9.150;2023-07-02T04:34:44;6.22;;;2.83;;
45354;SDS011;31091;48.758;9.150;2023-07-02T04:37:30;5.28;;;3.10;;
45354;SDS011;31091;48.758;9.150;2023-07-02T04:40:15;8.35;;;2.97;;
45354;SDS011;31091;48.758;9.150;2023-07-02T04:43:00;6.10;;;3.42;;
45354;SDS011;31091;48.758;9.150;2023-07-02T04:45:45;5.65;;;3.30;;
45354;SDS011;31091;48.758;9.150;2023-07-02T04:48:33;9.32;;;2.70;;
45354;SDS011;31091;48.758;9.150;2023-07-02T04:51:20;9.60;;;3.03;;
45354;SDS011;31091;48.758;9.150;2023-07-02T04:54:05;7.28;;;3.63;;
45354;SDS011;31091;48.758;9.150;2023-07-02T04:56:50;8.13;;;3.45;;
45354;SDS011;31091;48.758;9.150;2023-07-02T04:59:35;7.65;;;2.88;;
45354;SDS011;31091;48.758;9.150;2023-07-02T05:02:21;6.25;;;2.92;;
45354;SDS011;31091;48.758;9.150;2023-07-02T05:05:06;4.85;;;2.78;;
45354;SDS011;31091;48.758;9.150;2023-07-02T05:07:53;5.30;;;3.25;;
45354;SDS011;31091;48.758;9.150;2023-07-02T05:10:39;6.00;;;3.38;;
45354;SDS011;31091;48.758;9.150;2023-07-02T05:13:24;4.35;;;2.90;;
45354;SDS011;31091;48.758;9.150;2023-07-02T05:16:09;5.25;;;3.15;;
45354;SDS011;31091;48.758;9.150;2023-07-02T05:18:55;6.60;;;3.10;;
45354;SDS011;31091;48.758;9.150;2023-07-02T05:21:40;5.22;;;2.95;;
45354;SDS011;31091;48.758;9.150;2023-07-02T05:24:26;4.65;;;2.60;;
45354;SDS011;31091;48.758;9.150;2023-07-02T05:27:11;4.30;;;2.67;;
45354;SDS011;31091;48.758;9.150;2023-07-02T05:29:58;4.25;;;2.90;;
45354;SDS011;31091;48.758;9.150;2023-07-02T05:32:43;5.38;;;3.30;;
45354;SDS011;31091;48.758;9.150;2023-07-02T05:35:28;5.78;;;3.25;;
45354;SDS011;31091;48.758;9.150;2023-07-02T05:38:13;6.10;;;3.30;;
45354;SDS011;31091;48.758;9.150;2023-07-02T05:40:59;6.72;;;3.13;;
45354;SDS011;31091;48.758;9.150;2023-07-02T05:43:44;6.85;;;3.22;;
45354;SDS011;31091;48.758;9.150;2023-07-02T05:46:29;6.18;;;3.10;;
45354;SDS011;31091;48.758;9.150;2023-07-02T05:49:14;11.43;;;3.20;;
45354;SDS011;31091;48.758;9.150;2023-07-02T05:51:59;6.78;;;3.25;;
45354;SDS011;31091;48.758;9.150;2023-07-02T05:54:45;8.02;;;3.40;;
45354;SDS011;31091;48.758;9.150;2023-07-02T05:57:30;6.47;;;3.97;;
45354;SDS011;31091;48.758;9.150;2023-07-02T06:00:15;6.72;;;3.30;;
45354;SDS011;31091;48.758;9.150;2023-07-02T06:03:00;6.13;;;3.65;;
45354;SDS011;31091;48.758;9.150;2023-07-02T06:05:46;7.43;;;4.15;;
45354;SDS011;31091;48.758;9.150;2023-07-02T06:08:33;5.07;;;3.22;;
45354;SDS011;31091;48.758;9.150;2023-07-02T06:11:18;7.75;;;3.85;;
45354;SDS011;31091;48.758;9.150;2023-07-02T06:14:03;12.02;;;5.20;;
45354;SDS011;31091;48.758;9.150;2023-07-02T06:16:48;11.38;;;4.50;;
45354;SDS011;31091;48.758;9.150;2023-07-02T06:19:34;9.50;;;4.95;;
45354;SDS011;31091;48.758;9.150;2023-07-02T06:22:19;11.13;;;4.93;;
45354;SDS011;31091;48.758;9.150;2023-07-02T06:25:04;9.73;;;5.10;;
45354;SDS011;31091;48.758;9.150;2023-07-02T06:27:50;10.38;;;5.43;;
45354;SDS011;31091;48.758;9.150;2023-07-02T06:30:35;10.50;;;6.00;;
45354;SDS011;31091;48.758;9.150;2023-07-02T06:33:20;14.18;;;6.50;;
45354;SDS011;31091;48.758;9.150;2023-07-02T06:36:05;13.77;;;7.50;;
45354;SDS011;31091;48.758;9.150;2023-07-02T06:38:50;16.45;;;7.07;;
45354;SDS011;31091;48.758;9.150;2023-07-02T06:41:36;13.25;;;7.50;;
45354;SDS011;31091;48.758;9.150;2023-07-02T06:44:21;12.95;;;6.88;;
45354;SDS011;31091;48.758;9.150;2023-07-02T06:47:06;16.15;;;7.03;;
45354;SDS011;31091;48.758;9.150;2023-07-02T06:49:52;15.68;;;8.13;;
45354;SDS011;31091;48.758;9.150;2023-07-02T06:52:37;16.40;;;7.47;;
45354;SDS011;31091;48.758;9.150;2023-07-02T06:55:22;13.90;;;7.45;;
45354;SDS011;31091;48.758;9.150;2023-07-02T06:58:08;17.77;;;7.55;;
45354;SDS011;31091;48.758;9.150;2023-07-02T07:00:54;16.05;;;7.60;;
45354;SDS011;31091;48.758;9.150;2023-07-02T07:03:39;15.10;;;8.50;;
45354;SDS011;31091;48.758;9.150;2023-07-02T07:06:24;10.98;;;6.65;;
45354;SDS011;31091;48.758;9.150;2023-07-02T07:09:09;15.60;;;8.05;;
45354;SDS011;31091;48.758;9.150;2023-07-02T07:11:55;14.02;;;7.97;;
45354;SDS011;31091;48.758;9.150;2023-07-02T07:14:40;14.73;;;7.22;;
45354;SDS011;31091;48.758;9.150;2023-07-02T07:17:26;13.80;;;7.63;;
45354;SDS011;31091;48.758;9.150;2023-07-02T07:20:11;17.63;;;7.63;;
45354;SDS011;31091;48.758;9.150;2023-07-02T07:22:56;14.45;;;8.68;;
45354;SDS011;31091;48.758;9.150;2023-07-02T07:25:42;17.60;;;10.32;;
45354;SDS011;31091;48.758;9.150;2023-07-02T07:28:27;19.88;;;10.75;;
45354;SDS011;31091;48.758;9.150;2023-07-02T07:31:12;15.00;;;9.32;;
45354;SDS011;31091;48.758;9.150;2023-07-02T07:33:57;19.10;;;10.90;;
45354;SDS011;31091;48.758;9.150;2023-07-02T07:36:43;19.13;;;9.90;;
45354;SDS011;31091;48.758;9.150;2023-07-02T07:39:28;17.75;;;10.77;;
45354;SDS011;31091;48.758;9.150;2023-07-02T07:42:14;18.15;;;10.82;;
45354;SDS011;31091;48.758;9.150;2023-07-02T07:45:00;16.65;;;11.00;;
45354;SDS011;31091;48.758;9.150;2023-07-02T07:47:45;19.15;;;10.98;;
45354;SDS011;31091;48.758;9.150;2023-07-02T07:50:30;19.05;;;11.75;;
45354;SDS011;31091;48.758;9.150;2023-07-02T07:53:15;18.42;;;9.50;;
45354;SDS011;31091;48.758;9.150;2023-07-02T07:56:01;18.70;;;9.95;;
45354;SDS011;31091;48.758;9.150;2023-07-02T07:58:46;17.05;;;10.85;;
45354;SDS011;31091;48.758;9.150;2023-07-02T08:01:31;17.70;;;10.50;;
45354;SDS011;31091;48.758;9.150;2023-07-02T08:04:16;20.27;;;10.73;;
45354;SDS011;31091;48.758;9.150;2023-07-02T08:07:01;18.63;;;11.05;;
45354;SDS011;31091;48.758;9.150;2023-07-02T08:09:49;17.58;;;10.68;;
45354;SDS011;31091;48.758;9.150;2023-07-02T08:12:34;21.05;;;10.57;;
45354;SDS011;31091;48.758;9.150;2023-07-02T08:15:23;23.15;;;11.52;;
45354;SDS011;31091;48.758;9.150;2023-07-02T08:18:08;17.02;;;10.30;;
45354;SDS011;31091;48.758;9.150;2023-07-02T08:20:54;24.20;;;10.50;;
45354;SDS011;31091;48.758;9.150;2023-07-02T08:23:42;20.48;;;10.88;;
45354;SDS011;31091;48.758;9.150;2023-07-02T08:26:27;20.63;;;10.15;;
45354;SDS011;31091;48.758;9.150;2023-07-02T08:29:12;21.80;;;11.98;;
45354;SDS011;31091;48.758;9.150;2023-07-02T08:31:57;21.17;;;11.07;;
45354;SDS011;31091;48.758;9.150;2023-07-02T08:34:43;21.10;;;10.98;;
45354;SDS011;31091;48.758;9.150;2023-07-02T08:37:28;19.77;;;10.65;;
45354;SDS011;31091;48.758;9.150;2023-07-02T08:40:17;21.00;;;11.60;;
45354;SDS011;31091;48.758;9.150;2023-07-02T08:43:03;18.02;;;10.63;;
45354;SDS011;31091;48.758;9.150;2023-07-02T08:45:48;22.67;;;12.10;;
45354;SDS011;31091;48.758;9.150;2023-07-02T08:48:34;25.27;;;12.95;;
45354;SDS011;31091;48.758;9.150;2023-07-02T08:51:22;19.40;;;11.55;;
45354;SDS011;31091;48.758;9.150;2023-07-02T08:54:37;22.38;;;10.95;;
45354;SDS011;31091;48.758;9.150;2023-07-02T08:57:22;20.10;;;10.10;;
45354;SDS011;31091;48.758;9.150;2023-07-02T09:00:08;18.25;;;11.07;;
45354;SDS011;31091;48.758;9.150;2023-07-02T09:02:54;16.27;;;10.55;;
45354;SDS011;31091;48.758;9.150;2023-07-02T09:05:49;19.95;;;11.20;;
45354;SDS011;31091;48.758;9.150;2023-07-02T09:08:34;19.58;;;10.48;;
45354;SDS011;31091;48.758;9.150;2023-07-02T09:11:19;16.30;;;9.25;;
45354;SDS011;31091;48.758;9.150;2023-07-02T09:14:05;14.90;;;8.95;;
45354;SDS011;31091;48.758;9.150;2023-07-02T09:17:00;17.33;;;9.55;;
45354;SDS011;31091;48.758;9.150;2023-07-02T09:19:49;19.98;;;10.90;;
45354;SDS011;31091;48.758;9.150;2023-07-02T09:22:35;16.38;;;9.48;;
45354;SDS011;31091;48.758;9.150;2023-07-02T09:25:20;16.70;;;10.60;;
45354;SDS011;31091;48.758;9.150;2023-07-02T09:28:18;17.95;;;10.63;;
45354;SDS011;31091;48.758;9.150;2023-07-02T09:31:04;16.97;;;10.87;;
45354;SDS011;31091;48.758;9.150;2023-07-02T09:33:49;19.48;;;10.95;;
45354;SDS011;31091;48.758;9.150;2023-07-02T09:36:35;18.98;;;10.80;;
45354;SDS011;31091;48.758;9.150;2023-07-02T09:39:26;20.73;;;10.27;;
45354;SDS011;31091;48.758;9.150;2023-07-02T09:42:12;19.75;;;11.85;;
45354;SDS011;31091;48.758;9.150;2023-07-02T09:45:00;15.50;;;9.45;;
45354;SDS011;31091;48.758;9.150;2023-07-02T09:47:47;15.30;;;9.00;;
45354;SDS011;31091;48.758;9.150;2023-07-02T09:50:34;16.08;;;9.88;;
45354;SDS011;31091;48.758;9.150;2023-07-02T09:53:19;16.38;;;9.73;;
45354;SDS011;31091;48.758;9.150;2023-07-02T09:56:06;17.25;;;10.45;;
45354;SDS011;31091;48.758;9.150;2023-07-02T09:58:52;18.77;;;10.88;;
45354;SDS011;31091;48.758;9.150;2023-07-02T10:01:37;16.25;;;9.88;;
45354;SDS011;31091;48.758;9.150;2023-07-02T10:04:23;17.85;;;9.18;;
45354;SDS011;31091;48.758;9.150;2023-07-02T10:07:12;17.88;;;10.82;;
45354;SDS011;31091;48.758;9.150;2023-07-02T10:09:57;14.57;;;10.02;;
45354;SDS011;31091;48.758;9.150;2023-07-02T10:12:46;21.38;;;10.38;;
45354;SDS011;31091;48.758;9.150;2023-07-02T10:15:31;18.27;;;10.57;;
45354;SDS011;31091;48.758;9.150;2023-07-02T10:18:16;22.27;;;11.77;;
45354;SDS011;31091;48.758;9.150;2023-07-02T10:21:15;19.40;;;11.98;;
45354;SDS011;31091;48.758;9.150;2023-07-02T10:24:13;17.58;;;11.75;;
45354;SDS011;31091;48.758;9.150;2023-07-02T10:27:02;19.10;;;11.50;;
45354;SDS011;31091;48.758;9.150;2023-07-02T10:29:50;18.77;;;12.15;;
45354;SDS011;31091;48.758;9.150;2023-07-02T10:32:36;18.95;;;12.43;;
45354;SDS011;31091;48.758;9.150;2023-07-02T10:35:23;21.13;;;12.38;;
45354;SDS011;31091;48.758;9.150;2023-07-02T10:38:13;18.75;;;11.57;;
45354;SDS011;31091;48.758;9.150;2023-07-02T10:41:00;23.48;;;12.38;;
45354;SDS011;31091;48.758;9.150;2023-07-02T10:43:46;18.67;;;12.02;;
45354;SDS011;31091;48.758;9.150;2023-07-02T10:46:31;17.58;;;12.10;;
45354;SDS011;31091;48.758;9.150;2023-07-02T10:49:16;19.80;;;11.43;;
45354;SDS011;31091;48.758;9.150;2023-07-02T10:52:02;21.85;;;11.52;;
45354;SDS011;31091;48.758;9.150;2023-07-02T10:54:49;19.02;;;11.85;;
45354;SDS011;31091;48.758;9.150;2023-07-02T10:57:34;18.75;;;11.75;;
45354;SDS011;31091;48.758;9.150;2023-07-02T11:00:19;19.15;;;12.10;;
45354;SDS011;31091;48.758;9.150;2023-07-02T11:03:04;18.52;;;13.27;;
45354;SDS011;31091;48.758;9.150;2023-07-02T11:05:50;20.75;;;12.45;;
45354;SDS011;31091;48.758;9.150;2023-07-02T11:08:35;19.52;;;12.48;;
45354;SDS011;31091;48.758;9.150;2023-07-02T11:11:21;26.77;;;12.73;;
45354;SDS011;31091;48.758;9.150;2023-07-02T11:14:07;18.88;;;11.77;;
45354;SDS011;31091;48.758;9.150;2023-07-02T11:16:56;20.58;;;11.30;;
45354;SDS011;31091;48.758;9.150;2023-07-02T11:19:41;18.95;;;12.00;;
45354;SDS011;31091;48.758;9.150;2023-07-02T11:22:35;19.00;;;11.98;;
45354;SDS011;31091;48.758;9.150;2023-07-02T11:25:20;18.10;;;12.45;;
45354;SDS011;31091;48.758;9.150;2023-07-02T11:28:06;17.80;;;11.43;;
45354;SDS011;31091;48.758;9.150;2023-07-02T11:30:51;17.65;;;11.02;;
45354;SDS011;31091;48.758;9.150;2023-07-02T11:33:37;26.13;;;13.57;;
45354;SDS011;31091;48.758;9.150;2023-07-02T11:36:23;20.67;;;11.65;;
45354;SDS011;31091;48.758;9.150;2023-07-02T11:39:09;17.83;;;11.57;;
45354;SDS011;31091;48.758;9.150;2023-07-02T11:41:55;18.95;;;11.48;;
45354;SDS011;31091;48.758;9.150;2023-07-02T11:44:40;15.60;;;9.93;;
45354;SDS011;31091;48.758;9.150;2023-07-02T11:47:25;19.73;;;11.55;;
45354;SDS011;31091;48.758;9.150;2023-07-02T11:50:12;18.08;;;11.60;;
45354;SDS011;31091;48.758;9.150;2023-07-02T11:52:58;16.45;;;10.70;;
45354;SDS011;31091;48.758;9.150;2023-07-02T11:55:43;21.63;;;12.10;;
45354;SDS011;31091;48.758;9.150;2023-07-02T11:58:28;19.92;;;11.20;;
45354;SDS011;31091;48.758;9.150;2023-07-02T12:01:13;17.55;;;10.38;;
45354;SDS011;31091;48.758;9.150;2023-07-02T12:03:59;17.58;;;11.82;;
45354;SDS011;31091;48.758;9.150;2023-07-02T12:06:44;18.05;;;10.48;;
45354;SDS011;31091;48.758;9.150;2023-07-02T12:09:29;17.85;;;10.95;;
45354;SDS011;31091;48.758;9.150;2023-07-02T12:12:15;20.05;;;12.38;;
45354;SDS011;31091;48.758;9.150;2023-07-02T12:15:00;18.48;;;11.40;;
45354;SDS011;31091;48.758;9.150;2023-07-02T12:17:45;16.15;;;10.98;;
45354;SDS011;31091;48.758;9.150;2023-07-02T12:20:30;15.88;;;10.77;;
45354;SDS011;31091;48.758;9.150;2023-07-02T12:23:16;20.92;;;12.02;;
45354;SDS011;31091;48.758;9.150;2023-07-02T12:26:01;16.52;;;10.88;;
45354;SDS011;31091;48.758;9.150;2023-07-02T12:28:46;31.85;;;12.57;;
45354;SDS011;31091;48.758;9.150;2023-07-02T12:31:31;19.50;;;10.80;;
45354;SDS011;31091;48.758;9.150;2023-07-02T12:34:16;20.95;;;11.43;;
45354;SDS011;31091;48.758;9.150;2023-07-02T12:37:02;20.25;;;12.20;;
45354;SDS011;31091;48.758;9.150;2023-07-02T12:39:48;23.45;;;11.18;;
45354;SDS011;31091;48.758;9.150;2023-07-02T12:42:34;21.58;;;11.70;;
45354;SDS011;31091;48.758;9.150;2023-07-02T12:45:19;17.63;;;11.20;;
45354;SDS011;31091;48.758;9.150;2023-07-02T12:48:04;17.55;;;10.77;;
45354;SDS011;31091;48.758;9.150;2023-07-02T12:50:53;18.77;;;12.48;;
45354;SDS011;31091;48.758;9.150;2023-07-02T12:53:39;21.15;;;11.60;;
45354;SDS011;31091;48.758;9.150;2023-07-02T12:56:25;18.45;;;12.18;;
45354;SDS011;31091;48.758;9.150;2023-07-02T12:59:10;17.10;;;10.27;;
45354;SDS011;31091;48.758;9.150;2023-07-02T13:01:55;21.50;;;11.50;;
45354;SDS011;31091;48.758;9.150;2023-07-02T13:04:40;17.48;;;11.48;;
45354;SDS011;31091;48.758;9.150;2023-07-02T13:07:25;17.20;;;10.52;;
45354;SDS011;31091;48.758;9.150;2023-07-02T13:10:11;17.63;;;11.60;;
45354;SDS011;31091;48.758;9.150;2023-07-02T13:12:56;20.80;;;11.77;;
45354;SDS011;31091;48.758;9.150;2023-07-02T13:15:41;16.65;;;10.95;;
45354;SDS011;31091;48.758;9.150;2023-07-02T13:18:26;18.60;;;11.95;;
45354;SDS011;31091;48.758;9.150;2023-07-02T13:21:12;18.60;;;11.95;;
45354;SDS011;31091;48.758;9.150;2023-07-02T13:23:57;15.90;;;9.93;;
45354;SDS011;31091;48.758;9.150;2023-07-02T13:26:42;14.80;;;10.57;;
45354;SDS011;31091;48.758;9.150;2023-07-02T13:29:27;22.65;;;11.40;;
45354;SDS011;31091;48.758;9.150;2023-07-02T13:32:13;21.25;;;12.27;;
45354;SDS011;31091;48.758;9.150;2023-07-02T13:34:58;18.17;;;10.35;;
45354;SDS011;31091;48.758;9.150;2023-07-02T13:37:43;18.52;;;11.68;;
45354;SDS011;31091;48.758;9.150;2023-07-02T13:40:28;15.73;;;10.38;;
45354;SDS011;31091;48.758;9.150;2023-07-02T13:43:13;19.88;;;10.88;;
45354;SDS011;31091;48.758;9.150;2023-07-02T13:45:59;17.48;;;10.77;;
45354;SDS011;31091;48.758;9.150;2023-07-02T13:48:44;18.77;;;10.63;;
45354;SDS011;31091;48.758;9.150;2023-07-02T13:51:29;16.02;;;10.82;;
45354;SDS011;31091;48.758;9.150;2023-07-02T13:54:14;17.50;;;10.88;;
45354;SDS011;31091;48.758;9.150;2023-07-02T13:57:00;16.67;;;10.60;;
45354;SDS011;31091;48.758;9.150;2023-07-02T13:59:45;16.58;;;10.80;;
45354;SDS011;31091;48.758;9.150;2023-07-02T14:02:30;18.00;;;10.93;;
45354;SDS011;31091;48.758;9.150;2023-07-02T14:05:16;19.58;;;10.93;;
45354;SDS011;31091;48.758;9.150;2023-07-02T14:08:01;17.30;;;10.80;;
45354;SDS011;31091;48.758;9.150;2023-07-02T14:10:47;16.73;;;9.70;;
45354;SDS011;31091;48.758;9.150;2023-07-02T14:13:32;17.52;;;11.23;;
45354;SDS011;31091;48.758;9.150;2023-07-02T14:16:17;17.33;;;11.02;;
45354;SDS011;31091;48.758;9.150;2023-07-02T14:19:02;19.55;;;10.80;;
45354;SDS011;31091;48.758;9.150;2023-07-02T14:21:47;20.35;;;10.75;;
45354;SDS011;31091;48.758;9.150;2023-07-02T14:24:34;21.02;;;12.88;;
45354;SDS011;31091;48.758;9.150;2023-07-02T14:27:19;20.48;;;11.85;;
45354;SDS011;31091;48.758;9.150;2023-07-02T14:30:04;21.05;;;11.85;;
45354;SDS011;31091;48.758;9.150;2023-07-02T14:32:52;18.63;;;11.52;;
45354;SDS011;31091;48.758;9.150;2023-07-02T14:35:37;16.98;;;11.10;;
45354;SDS011;31091;48.758;9.150;2023-07-02T14:38:23;16.75;;;11.20;;
45354;SDS011;31091;48.758;9.150;2023-07-02T14:41:08;18.38;;;11.15;;
45354;SDS011;31091;48.758;9.150;2023-07-02T14:43:53;18.48;;;11.38;;
45354;SDS011;31091;48.758;9.150;2023-07-02T14:46:39;18.73;;;11.18;;
45354;SDS011;31091;48.758;9.150;2023-07-02T14:49:24;18.77;;;11.13;;
45354;SDS011;31091;48.758;9.150;2023-07-02T14:52:10;15.90;;;10.07;;
45354;SDS011;31091;48.758;9.150;2023-07-02T14:54:57;20.30;;;11.98;;
45354;SDS011;31091;48.758;9.150;2023-07-02T14:57:44;20.92;;;12.77;;
45354;SDS011;31091;48.758;9.150;2023-07-02T15:00:29;17.95;;;10.73;;
45354;SDS011;31091;48.758;9.150;2023-07-02T15:03:15;17.45;;;11.25;;
45354;SDS011;31091;48.758;9.150;2023-07-02T15:06:13;17.65;;;11.43;;
45354;SDS011;31091;48.758;9.150;2023-07-02T15:08:59;17.70;;;11.23;;
45354;SDS011;31091;48.758;9.150;2023-07-02T15:11:44;18.90;;;12.02;;
45354;SDS011;31091;48.758;9.150;2023-07-02T15:14:29;17.00;;;11.20;;
45354;SDS011;31091;48.758;9.150;2023-07-02T15:17:15;15.30;;;9.65;;
45354;SDS011;31091;48.758;9.150;2023-07-02T15:20:00;19.27;;;11.57;;
45354;SDS011;31091;48.758;9.150;2023-07-02T15:22:45;19.60;;;12.18;;
45354;SDS011;31091;48.758;9.150;2023-07-02T15:25:31;19.95;;;11.27;;
45354;SDS011;31091;48.758;9.150;2023-07-02T15:28:16;18.70;;;11.88;;
45354;SDS011;31091;48.758;9.150;2023-07-02T15:31:03;16.90;;;11.32;;
45354;SDS011;31091;48.758;9.150;2023-07-02T15:33:49;22.42;;;11.45;;
45354;SDS011;31091;48.758;9.150;2023-07-02T15:36:34;18.35;;;11.57;;
45354;SDS011;31091;48.758;9.150;2023-07-02T15:39:20;18.88;;;11.60;;
45354;SDS011;31091;48.758;9.150;2023-07-02T15:42:07;18.38;;;11.02;;
45354;SDS011;31091;48.758;9.150;2023-07-02T15:44:54;19.63;;;11.32;;
45354;SDS011;31091;48.758;9.150;2023-07-02T15:47:39;17.17;;;11.25;;
45354;SDS011;31091;48.758;9.150;2023-07-02T15:50:24;17.17;;;11.05;;
45354;SDS011;31091;48.758;9.150;2023-07-02T15:53:10;20.95;;;13.02;;
45354;SDS011;31091;48.758;9.150;2023-07-02T15:55:56;18.63;;;11.20;;
45354;SDS011;31091;48.758;9.150;2023-07-02T15:58:41;17.45;;;11.45;;
45354;SDS011;31091;48.758;9.150;2023-07-02T16:01:27;21.45;;;12.48;;
45354;SDS011;31091;48.758;9.150;2023-07-02T16:04:12;17.52;;;10.25;;
45354;SDS011;31091;48.758;9.150;2023-07-02T16:06:57;17.60;;;11.20;;
45354;SDS011;31091;48.758;9.150;2023-07-02T16:09:43;17.67;;;10.45;;
45354;SDS011;31091;48.758;9.150;2023-07-02T16:12:28;17.80;;;11.63;;
45354;SDS011;31091;48.758;9.150;2023-07-02T16:15:13;17.38;;;10.73;;
45354;SDS011;31091;48.758;9.150;2023-07-02T16:17:58;16.08;;;10.68;;
45354;SDS011;31091;48.758;9.150;2023-07-02T16:20:44;19.55;;;11.23;;
45354;SDS011;31091;48.758;9.150;2023-07-02T16:23:39;21.92;;;11.35;;